createdAt,value
2023-01-12T00:03:32.862Z,3.60
2023-01-12T00:08:55.088Z,3.70
2023-01-12T00:14:17.603Z,3.70
2023-01-12T00:19:40.193Z,3.60
2023-01-12T00:25:02.405Z,3.70
2023-01-12T00:30:24.529Z,3.70
2023-01-12T00:35:46.703Z,3.70
2023-01-12T00:41:11.871Z,3.80
2023-01-12T00:46:34.011Z,3.80
2023-01-12T00:51:56.165Z,3.80
2023-01-12T00:57:19.403Z,3.90
2023-01-12T01:02:41.604Z,3.90
2023-01-12T01:08:04.578Z,4.00
2023-01-12T01:13:26.776Z,3.90
2023-01-12T01:18:49.304Z,4.00
2023-01-12T01:24:13.099Z,4.00
2023-01-12T01:29:35.495Z,4.00
2023-01-12T01:34:57.674Z,4.00
2023-01-12T01:40:19.857Z,3.90
2023-01-12T01:45:44.454Z,3.90
2023-01-12T01:51:12.255Z,4.10
2023-01-12T01:56:34.866Z,4.10
2023-01-12T02:01:57.371Z,4.00
2023-01-12T02:07:19.698Z,4.00
2023-01-12T02:13:00.946Z,4.00
2023-01-12T02:18:26.176Z,4.10
2023-01-12T02:24:00.399Z,4.10
2023-01-12T02:29:47.236Z,4.00
2023-01-12T02:35:43.262Z,4.00
2023-01-12T02:41:44.320Z,4.10
2023-01-12T02:47:11.521Z,4.10
2023-01-12T02:52:34.464Z,4.10
2023-01-12T02:57:57.765Z,4.10
2023-01-12T03:03:20.991Z,4.10
2023-01-12T03:08:44.879Z,4.10
2023-01-12T03:14:09.368Z,4.20
2023-01-12T03:19:33.119Z,4.30
2023-01-12T03:24:59.129Z,4.30
2023-01-12T03:30:26.220Z,4.20
2023-01-12T03:36:04.682Z,4.10
2023-01-12T03:41:53.515Z,4.20
2023-01-12T03:47:24.261Z,4.30
2023-01-12T03:52:47.765Z,4.20
2023-01-12T03:58:09.963Z,4.30
2023-01-12T04:03:32.202Z,4.40
2023-01-12T04:08:54.443Z,4.50
2023-01-12T04:14:16.644Z,4.60
2023-01-12T04:19:38.881Z,4.60
2023-01-12T04:25:01.109Z,4.50
2023-01-12T04:30:27.136Z,4.50
2023-01-12T04:35:49.310Z,4.50
2023-01-12T04:41:11.517Z,4.50
2023-01-12T04:46:33.828Z,4.50
2023-01-12T04:51:56.004Z,4.50
2023-01-12T04:57:18.169Z,4.50
2023-01-12T05:02:40.396Z,4.50
2023-01-12T05:08:23.239Z,4.50
2023-01-12T05:13:45.396Z,4.60
2023-01-12T05:19:09.497Z,4.60
2023-01-12T05:24:31.662Z,4.60
2023-01-12T05:29:53.892Z,4.60
2023-01-12T05:35:16.105Z,4.50
2023-01-12T05:40:38.436Z,4.60
2023-01-12T05:46:05.526Z,4.70
2023-01-12T05:51:30.790Z,4.70
2023-01-12T05:56:53.336Z,4.80
2023-01-12T06:02:17.661Z,4.80
2023-01-12T06:07:40.057Z,4.90
2023-01-12T06:13:21.372Z,4.90
2023-01-12T06:18:43.662Z,4.80
2023-01-12T06:24:06.157Z,4.70
2023-01-12T06:29:28.344Z,4.70
2023-01-12T06:34:50.515Z,4.70
2023-01-12T06:40:13.225Z,4.70
2023-01-12T06:45:35.467Z,4.70
2023-01-12T06:51:05.059Z,4.70
2023-01-12T06:56:27.253Z,4.80
2023-01-12T07:01:49.548Z,4.90
2023-01-12T07:07:11.829Z,4.90
2023-01-12T07:12:34.015Z,5.00
2023-01-12T07:17:57.579Z,5.10
2023-01-12T07:23:20.135Z,5.10
2023-01-12T07:28:42.869Z,5.10
2023-01-12T07:34:05.112Z,5.10
2023-01-12T07:39:27.282Z,5.20
2023-01-12T07:44:49.547Z,5.20
2023-01-12T07:50:13.117Z,5.30
2023-01-12T07:55:35.437Z,5.30
2023-01-12T08:01:01.598Z,5.40
2023-01-12T08:06:23.975Z,5.50
2023-01-12T08:11:46.129Z,5.50
2023-01-12T08:17:18.829Z,5.50
2023-01-12T08:22:45.450Z,5.60
2023-01-12T08:28:08.985Z,5.70
2023-01-12T08:33:31.321Z,5.70
2023-01-12T08:38:53.622Z,5.70
2023-01-12T08:44:15.866Z,5.70
2023-01-12T08:49:38.697Z,5.80
2023-01-12T08:55:00.995Z,5.70
2023-01-12T09:00:23.278Z,5.60
2023-01-12T09:05:46.055Z,5.60
2023-01-12T09:11:09.729Z,5.80
2023-01-12T09:16:33.643Z,6.00
2023-01-12T09:21:55.841Z,6.70
2023-01-12T09:27:18.013Z,7.30
2023-01-12T09:32:40.325Z,8.10
2023-01-12T09:38:02.510Z,8.70
2023-01-12T09:43:44.127Z,10.20
2023-01-12T09:49:06.660Z,10.50
2023-01-12T09:54:29.106Z,10.00
2023-01-12T10:00:02.212Z,10.00
2023-01-12T10:05:50.637Z,9.00
2023-01-12T10:11:43.276Z,8.30
2023-01-12T10:17:20.533Z,9.00
2023-01-12T10:23:08.417Z,9.70
2023-01-12T10:28:36.091Z,11.00
2023-01-12T10:34:12.078Z,11.30
2023-01-12T10:39:38.599Z,11.20
2023-01-12T10:45:24.049Z,11.30
2023-01-12T10:50:58.137Z,11.00
2023-01-12T10:56:20.785Z,11.00
2023-01-12T11:02:05.875Z,10.60
2023-01-12T11:07:29.240Z,10.50
2023-01-12T11:13:03.479Z,10.10
2023-01-12T11:18:44.323Z,10.50
2023-01-12T11:24:45.200Z,10.40
2023-01-12T11:30:21.540Z,10.40
2023-01-12T11:36:06.382Z,10.70
2023-01-12T11:41:43.457Z,10.80
2023-01-12T11:47:11.078Z,10.80
2023-01-12T11:52:34.563Z,10.60
2023-01-12T11:58:24.869Z,11.20
2023-01-12T12:03:59.483Z,10.60
2023-01-12T12:09:50.330Z,11.40
2023-01-12T12:15:36.431Z,11.50
2023-01-12T12:21:19.823Z,11.30
2023-01-12T12:26:44.107Z,11.10
2023-01-12T12:32:41.243Z,11.30
2023-01-12T12:38:27.496Z,11.30
2023-01-12T12:44:19.242Z,11.70
2023-01-12T12:49:42.024Z,11.80
2023-01-12T12:55:06.740Z,12.20
2023-01-12T13:00:43.587Z,12.70
2023-01-12T13:06:27.986Z,12.90
2023-01-12T13:12:00.067Z,13.20
2023-01-12T13:17:22.198Z,12.10
2023-01-12T13:22:46.853Z,11.80
2023-01-12T13:28:18.011Z,12.40
2023-01-12T13:33:40.373Z,12.30
2023-01-12T13:39:07.298Z,11.70
2023-01-12T13:44:36.815Z,11.40
2023-01-12T13:50:03.797Z,10.70
2023-01-12T13:55:29.270Z,10.50
2023-01-12T14:00:57.977Z,10.30
2023-01-12T14:06:39.188Z,10.40
2023-01-12T14:12:32.160Z,9.50
2023-01-12T14:18:06.440Z,8.80
2023-01-12T14:23:28.621Z,8.20
2023-01-12T14:28:52.374Z,7.80
2023-01-12T14:34:28.055Z,7.60
2023-01-12T14:39:50.523Z,7.40
2023-01-12T14:45:42.525Z,7.30
2023-01-12T14:51:36.087Z,7.10
2023-01-12T14:57:03.231Z,6.90
2023-01-12T15:02:35.410Z,6.80
2023-01-12T15:08:30.834Z,6.60
2023-01-12T15:14:00.749Z,6.50
2023-01-12T15:19:41.396Z,6.30
2023-01-12T15:25:31.752Z,6.10
2023-01-12T15:30:55.785Z,5.90
2023-01-12T15:36:18.252Z,5.80
2023-01-12T15:41:59.615Z,5.80
2023-01-12T15:47:22.473Z,5.80
2023-01-12T15:52:44.740Z,5.80
2023-01-12T15:58:07.192Z,5.80
2023-01-12T16:09:11.616Z,5.60
2023-01-12T16:14:33.938Z,5.50
2023-01-12T16:19:56.259Z,5.50
2023-01-12T16:25:18.525Z,5.40
2023-01-12T16:30:44.954Z,5.30
2023-01-12T16:36:07.853Z,5.10
2023-01-12T16:41:30.066Z,5.10
2023-01-12T16:46:52.244Z,5.10
2023-01-12T16:52:17.337Z,5.10
2023-01-12T16:57:41.340Z,4.90
2023-01-12T17:03:05.791Z,4.60
2023-01-12T17:08:29.924Z,4.30
2023-01-12T17:13:55.771Z,4.20
2023-01-12T17:19:20.598Z,4.10
2023-01-12T17:24:44.490Z,4.10
2023-01-12T17:30:08.681Z,4.10
2023-01-12T17:35:34.621Z,4.30
2023-01-12T17:40:58.314Z,4.50
2023-01-12T17:46:21.382Z,4.60
2023-01-12T17:51:44.670Z,4.50
2023-01-12T17:57:08.653Z,4.50
2023-01-12T18:02:31.834Z,4.50
2023-01-12T18:07:55.410Z,4.20
2023-01-12T18:13:19.397Z,4.20
2023-01-12T18:18:45.843Z,3.50
2023-01-12T18:24:10.147Z,3.10
2023-01-12T18:29:33.633Z,2.90
2023-01-12T18:34:58.620Z,2.90
2023-01-12T18:40:21.768Z,2.60
2023-01-12T18:45:48.235Z,2.30
2023-01-12T18:51:30.617Z,2.20
2023-01-12T18:56:53.908Z,2.30
2023-01-12T19:02:18.816Z,2.30
2023-01-12T19:08:17.783Z,2.20
2023-01-12T19:14:01.235Z,2.10
2023-01-12T19:19:28.377Z,2.00
2023-01-12T19:25:10.386Z,1.90
2023-01-12T19:30:38.266Z,2.00
2023-01-12T19:36:06.941Z,2.70
2023-01-12T19:41:48.954Z,4.10
2023-01-12T19:47:12.439Z,4.50
2023-01-12T19:52:37.544Z,4.60
2023-01-12T19:58:01.571Z,4.80
2023-01-12T20:03:25.556Z,4.90
2023-01-12T20:08:49.018Z,5.00
2023-01-12T20:14:12.711Z,5.20
2023-01-12T20:19:37.378Z,5.40
2023-01-12T20:25:04.684Z,5.50
2023-01-12T20:30:39.898Z,5.60
2023-01-12T20:36:03.453Z,5.60
2023-01-12T20:41:26.909Z,5.60
2023-01-12T20:46:55.436Z,5.60
2023-01-12T20:52:18.771Z,5.60
2023-01-12T20:57:42.075Z,5.70
2023-01-12T21:03:05.758Z,5.70
2023-01-12T21:08:29.650Z,5.70
2023-01-12T21:13:52.717Z,5.60
2023-01-12T21:19:16.315Z,5.60
2023-01-12T21:24:39.870Z,5.50
2023-01-12T21:30:04.074Z,5.60
2023-01-12T21:35:27.627Z,5.60
2023-01-12T21:40:50.661Z,5.60
2023-01-12T21:46:13.640Z,5.60
2023-01-12T21:51:36.684Z,5.60
2023-01-12T21:57:00.038Z,5.60
2023-01-12T22:02:23.207Z,5.50
2023-01-12T22:07:49.850Z,5.60
2023-01-12T22:13:17.260Z,5.50
2023-01-12T22:18:43.733Z,5.50
2023-01-12T22:24:07.260Z,5.50
2023-01-12T22:29:30.129Z,5.40
2023-01-12T22:34:55.584Z,5.30
2023-01-12T22:40:19.132Z,5.10
2023-01-12T22:45:42.058Z,5.10
2023-01-12T22:51:05.211Z,5.00
2023-01-12T22:56:28.393Z,5.00
2023-01-12T23:01:50.753Z,5.00
2023-01-12T23:07:13.055Z,5.10
2023-01-12T23:12:35.352Z,5.00
2023-01-12T23:17:59.540Z,5.00
2023-01-12T23:23:21.731Z,5.00
2023-01-12T23:28:50.572Z,5.00
2023-01-12T23:34:13.469Z,4.90
2023-01-12T23:39:35.662Z,5.00
2023-01-12T23:44:57.942Z,5.00
2023-01-12T23:50:20.156Z,4.90
2023-01-12T23:55:42.344Z,4.80
